sensor_id;sensor_type;location;lat;lon;timestamp;pressure;altitude;pressure_sealevel;temperature;humidity
36834;BME280;48003;52.084;5.224;2023-03-14T00:01:27;98914.0;;;13.08;79.08
36834;BME280;48003;52.084;5.224;2023-03-14T00:03:03;98919.0;;;12.98;78.58
36834;BME280;48003;52.084;5.224;2023-03-14T00:04:40;98922.0;;;12.95;78.83
36834;BME280;48003;52.084;5.224;2023-03-14T00:07:53;98919.0;;;13.15;77.81
36834;BME280;48003;52.084;5.224;2023-03-14T00:09:29;98918.0;;;12.91;78.08
36834;BME280;48003;52.084;5.224;2023-03-14T00:11:07;98916.0;;;13.15;77.66
36834;BME280;48003;52.084;5.224;2023-03-14T00:14:20;98919.0;;;12.91;78.58
36834;BME280;48003;52.084;5.224;2023-03-14T00:16:01;98919.0;;;12.96;78.12
36834;BME280;48003;52.084;5.224;2023-03-14T00:17:39;98916.0;;;13.21;76.77
36834;BME280;48003;52.084;5.224;2023-03-14T00:19:15;98922.0;;;13.11;77.48
36834;BME280;48003;52.084;5.224;2023-03-14T00:22:29;98922.0;;;12.98;77.44
36834;BME280;48003;52.084;5.224;2023-03-14T00:24:07;98918.0;;;12.86;76.91
36834;BME280;48003;52.084;5.224;2023-03-14T00:25:43;98913.0;;;12.9;76.92
36834;BME280;48003;52.084;5.224;2023-03-14T00:28:55;98922.0;;;12.95;76.19
36834;BME280;48003;52.084;5.224;2023-03-14T00:30:31;98913.0;;;12.57;76.94
36834;BME280;48003;52.084;5.224;2023-03-14T00:32:07;98916.0;;;12.68;76.16
36834;BME280;48003;52.084;5.224;2023-03-14T00:35:21;98911.0;;;12.77;75.62
36834;BME280;48003;52.084;5.224;2023-03-14T00:36:57;98920.0;;;12.69;75.13
36834;BME280;48003;52.084;5.224;2023-03-14T00:38:33;98915.0;;;12.61;75.27
36834;BME280;48003;52.084;5.224;2023-03-14T00:40:10;98926.0;;;12.6;74.47
36834;BME280;48003;52.084;5.224;2023-03-14T00:43:22;98921.0;;;12.58;74.91
36834;BME280;48003;52.084;5.224;2023-03-14T00:44:59;98923.0;;;12.6;74.66
36834;BME280;48003;52.084;5.224;2023-03-14T00:46:35;98920.0;;;12.65;75.27
36834;BME280;48003;52.084;5.224;2023-03-14T00:49:48;98915.0;;;12.69;74.89
36834;BME280;48003;52.084;5.224;2023-03-14T00:51:24;98917.0;;;12.77;74.77
36834;BME280;48003;52.084;5.224;2023-03-14T00:53:00;98915.0;;;13.07;73.86
36834;BME280;48003;52.084;5.224;2023-03-14T00:56:13;98919.0;;;13.13;73.7
36834;BME280;48003;52.084;5.224;2023-03-14T00:57:49;98930.0;;;12.87;75.19
36834;BME280;48003;52.084;5.224;2023-03-14T00:59:25;98922.0;;;12.55;77.05
36834;BME280;48003;52.084;5.224;2023-03-14T01:01:05;98921.0;;;12.6;77.27
36834;BME280;48003;52.084;5.224;2023-03-14T01:04:20;98923.0;;;12.48;77.22
36834;BME280;48003;52.084;5.224;2023-03-14T01:06:06;98935.0;;;12.44;78.48
36834;BME280;48003;52.084;5.224;2023-03-14T01:07:42;98945.0;;;11.98;81.02
36834;BME280;48003;52.084;5.224;2023-03-14T01:10:54;98934.0;;;12.16;80.98
36834;BME280;48003;52.084;5.224;2023-03-14T01:12:31;98926.0;;;12.1;81.2
36834;BME280;48003;52.084;5.224;2023-03-14T01:14:07;98942.0;;;12.0;82.51
36834;BME280;48003;52.084;5.224;2023-03-14T01:15:43;98945.0;;;11.8;83.6
36834;BME280;48003;52.084;5.224;2023-03-14T01:18:55;98938.0;;;11.82;84.89
36834;BME280;48003;52.084;5.224;2023-03-14T01:20:31;98944.0;;;11.77;86.11
36834;BME280;48003;52.084;5.224;2023-03-14T01:22:08;98943.0;;;11.74;85.96
36834;BME280;48003;52.084;5.224;2023-03-14T01:25:22;98952.0;;;11.38;87.59
36834;BME280;48003;52.084;5.224;2023-03-14T01:26:58;98952.0;;;11.26;88.75
36834;BME280;48003;52.084;5.224;2023-03-14T01:28:34;98960.0;;;11.57;87.66
36834;BME280;48003;52.084;5.224;2023-03-14T01:31:49;98942.0;;;11.53;87.32
36834;BME280;48003;52.084;5.224;2023-03-14T01:33:25;98943.0;;;11.33;88.41
36834;BME280;48003;52.084;5.224;2023-03-14T01:35:02;98942.0;;;11.51;87.78
36834;BME280;48003;52.084;5.224;2023-03-14T01:36:38;98933.0;;;11.48;86.84
36834;BME280;48003;52.084;5.224;2023-03-14T01:39:50;98931.0;;;11.88;85.59
36834;BME280;48003;52.084;5.224;2023-03-14T01:41:26;98927.0;;;11.4;88.06
36834;BME280;48003;52.084;5.224;2023-03-14T01:43:13;98921.0;;;11.63;86.97
36834;BME280;48003;52.084;5.224;2023-03-14T01:46:34;98924.0;;;12.06;84.46
36834;BME280;48003;52.084;5.224;2023-03-14T01:48:12;98930.0;;;11.7;85.65
36834;BME280;48003;52.084;5.224;2023-03-14T01:49:53;98923.0;;;11.51;85.86
36834;BME280;48003;52.084;5.224;2023-03-14T01:51:34;98920.0;;;11.94;84.22
36834;BME280;48003;52.084;5.224;2023-03-14T01:54:51;98915.0;;;11.95;83.63
36834;BME280;48003;52.084;5.224;2023-03-14T01:56:30;98916.0;;;12.21;82.56
36834;BME280;48003;52.084;5.224;2023-03-14T01:58:08;98909.0;;;11.96;82.73
36834;BME280;48003;52.084;5.224;2023-03-14T01:59:48;98905.0;;;12.22;82.29
36834;BME280;48003;52.084;5.224;2023-03-14T02:03:08;98897.0;;;12.24;81.53
36834;BME280;48003;52.084;5.224;2023-03-14T02:04:51;98906.0;;;11.99;82.77
36834;BME280;48003;52.084;5.224;2023-03-14T02:06:33;98898.0;;;12.09;82.55
36834;BME280;48003;52.084;5.224;2023-03-14T02:08:14;98897.0;;;12.13;82.14
36834;BME280;48003;52.084;5.224;2023-03-14T02:11:32;98895.0;;;12.0;82.49
36834;BME280;48003;52.084;5.224;2023-03-14T02:13:10;98887.0;;;12.21;80.74
36834;BME280;48003;52.084;5.224;2023-03-14T02:14:47;98894.0;;;11.92;81.86
36834;BME280;48003;52.084;5.224;2023-03-14T02:16:24;98892.0;;;11.92;82.32
36834;BME280;48003;52.084;5.224;2023-03-14T02:19:50;98903.0;;;11.55;84.17
36834;BME280;48003;52.084;5.224;2023-03-14T02:21:42;98899.0;;;11.53;84.36
36834;BME280;48003;52.084;5.224;2023-03-14T02:23:29;98884.0;;;11.91;83.16
36834;BME280;48003;52.084;5.224;2023-03-14T02:25:13;98895.0;;;11.29;85.12
36834;BME280;48003;52.084;5.224;2023-03-14T02:27:25;98874.0;;;11.26;86.14
36834;BME280;48003;52.084;5.224;2023-03-14T02:29:01;98876.0;;;11.46;84.97
36834;BME280;48003;52.084;5.224;2023-03-14T02:32:16;98869.0;;;11.91;82.81
36834;BME280;48003;52.084;5.224;2023-03-14T02:33:55;98873.0;;;11.67;83.63
36834;BME280;48003;52.084;5.224;2023-03-14T02:35:35;98873.0;;;11.67;83.92
36834;BME280;48003;52.084;5.224;2023-03-14T02:37:19;98876.0;;;11.51;84.52
36834;BME280;48003;52.084;5.224;2023-03-14T02:40:42;98888.0;;;11.48;84.8
36834;BME280;48003;52.084;5.224;2023-03-14T02:42:20;98872.0;;;11.7;84.0
36834;BME280;48003;52.084;5.224;2023-03-14T02:43:57;98891.0;;;11.59;84.56
36834;BME280;48003;52.084;5.224;2023-03-14T02:47:20;98878.0;;;11.7;84.01
36834;BME280;48003;52.084;5.224;2023-03-14T02:49:02;98868.0;;;11.49;85.5
36834;BME280;48003;52.084;5.224;2023-03-14T02:50:41;98875.0;;;11.51;85.26
36834;BME280;48003;52.084;5.224;2023-03-14T02:52:17;98862.0;;;11.66;84.14
36834;BME280;48003;52.084;5.224;2023-03-14T02:55:29;98868.0;;;11.55;84.75
36834;BME280;48003;52.084;5.224;2023-03-14T02:57:05;98862.0;;;11.45;85.37
36834;BME280;48003;52.084;5.224;2023-03-14T02:58:41;98852.0;;;11.71;84.16
36834;BME280;48003;52.084;5.224;2023-03-14T03:00:18;98871.0;;;11.31;85.95
36834;BME280;48003;52.084;5.224;2023-03-14T03:03:31;98861.0;;;11.12;87.16
36834;BME280;48003;52.084;5.224;2023-03-14T03:05:07;98868.0;;;11.57;85.88
36834;BME280;48003;52.084;5.224;2023-03-14T03:06:43;98866.0;;;11.49;85.81
36834;BME280;48003;52.084;5.224;2023-03-14T03:09:57;98869.0;;;11.57;85.07
36834;BME280;48003;52.084;5.224;2023-03-14T03:11:33;98864.0;;;11.64;84.94
36834;BME280;48003;52.084;5.224;2023-03-14T03:13:10;98860.0;;;11.34;86.32
36834;BME280;48003;52.084;5.224;2023-03-14T03:16:22;98859.0;;;11.74;84.73
36834;BME280;48003;52.084;5.224;2023-03-14T03:17:58;98862.0;;;11.4;85.77
36834;BME280;48003;52.084;5.224;2023-03-14T03:19:34;98858.0;;;11.42;85.46
36834;BME280;48003;52.084;5.224;2023-03-14T03:21:11;98855.0;;;11.7;84.46
36834;BME280;48003;52.084;5.224;2023-03-14T03:24:24;98849.0;;;11.83;83.62
36834;BME280;48003;52.084;5.224;2023-03-14T03:26:00;98853.0;;;11.79;83.12
36834;BME280;48003;52.084;5.224;2023-03-14T03:27:37;98849.0;;;11.95;82.4
36834;BME280;48003;52.084;5.224;2023-03-14T03:30:50;98840.0;;;11.98;82.45
36834;BME280;48003;52.084;5.224;2023-03-14T03:32:26;98830.0;;;11.59;84.04
36834;BME280;48003;52.084;5.224;2023-03-14T03:34:03;98830.0;;;11.69;83.27
36834;BME280;48003;52.084;5.224;2023-03-14T03:37:20;98833.0;;;11.45;83.88
36834;BME280;48003;52.084;5.224;2023-03-14T03:38:56;98830.0;;;11.32;84.8
36834;BME280;48003;52.084;5.224;2023-03-14T03:40:32;98824.0;;;11.45;84.81
36834;BME280;48003;52.084;5.224;2023-03-14T03:42:09;98826.0;;;11.76;83.41
36834;BME280;48003;52.084;5.224;2023-03-14T03:45:21;98834.0;;;11.86;82.66
36834;BME280;48003;52.084;5.224;2023-03-14T03:46:57;98836.0;;;11.72;82.98
36834;BME280;48003;52.084;5.224;2023-03-14T03:48:34;98831.0;;;11.76;82.95
36834;BME280;48003;52.084;5.224;2023-03-14T03:51:46;98827.0;;;11.85;82.35
36834;BME280;48003;52.084;5.224;2023-03-14T03:53:23;98822.0;;;11.59;82.97
36834;BME280;48003;52.084;5.224;2023-03-14T03:54:59;98830.0;;;11.47;83.33
36834;BME280;48003;52.084;5.224;2023-03-14T03:58:11;98822.0;;;11.47;83.17
36834;BME280;48003;52.084;5.224;2023-03-14T03:59:47;98822.0;;;11.96;81.33
36834;BME280;48003;52.084;5.224;2023-03-14T04:01:23;98827.0;;;11.87;81.19
36834;BME280;48003;52.084;5.224;2023-03-14T04:04:36;98819.0;;;11.61;82.0
36834;BME280;48003;52.084;5.224;2023-03-14T04:06:13;98830.0;;;11.93;80.86
36834;BME280;48003;52.084;5.224;2023-03-14T04:07:49;98824.0;;;11.71;81.44
36834;BME280;48003;52.084;5.224;2023-03-14T04:09:25;98822.0;;;11.5;82.47
36834;BME280;48003;52.084;5.224;2023-03-14T04:12:39;98835.0;;;11.73;81.72
36834;BME280;48003;52.084;5.224;2023-03-14T04:14:15;98830.0;;;11.72;82.0
36834;BME280;48003;52.084;5.224;2023-03-14T04:15:52;98822.0;;;11.57;82.18
36834;BME280;48003;52.084;5.224;2023-03-14T04:19:04;98843.0;;;11.5;81.97
36834;BME280;48003;52.084;5.224;2023-03-14T04:20:41;98824.0;;;11.71;81.56
36834;BME280;48003;52.084;5.224;2023-03-14T04:22:17;98830.0;;;11.98;80.41
36834;BME280;48003;52.084;5.224;2023-03-14T04:25:30;98832.0;;;11.92;80.27
36834;BME280;48003;52.084;5.224;2023-03-14T04:27:06;98839.0;;;11.67;81.56
36834;BME280;48003;52.084;5.224;2023-03-14T04:28:42;98832.0;;;11.6;82.2
36834;BME280;48003;52.084;5.224;2023-03-14T04:30:19;98837.0;;;11.67;82.08
36834;BME280;48003;52.084;5.224;2023-03-14T04:33:32;98832.0;;;11.77;81.72
36834;BME280;48003;52.084;5.224;2023-03-14T04:35:08;98831.0;;;11.75;81.7
36834;BME280;48003;52.084;5.224;2023-03-14T04:36:44;98830.0;;;11.95;80.75
36834;BME280;48003;52.084;5.224;2023-03-14T04:39:56;98824.0;;;12.0;80.94
36834;BME280;48003;52.084;5.224;2023-03-14T04:41:32;98823.0;;;11.97;80.86
36834;BME280;48003;52.084;5.224;2023-03-14T04:43:10;98819.0;;;11.85;81.44
36834;BME280;48003;52.084;5.224;2023-03-14T04:46:23;98812.0;;;12.18;80.19
36834;BME280;48003;52.084;5.224;2023-03-14T04:47:59;98812.0;;;12.15;80.23
36834;BME280;48003;52.084;5.224;2023-03-14T04:49:35;98815.0;;;11.99;81.02
36834;BME280;48003;52.084;5.224;2023-03-14T04:51:11;98821.0;;;11.85;81.69
36834;BME280;48003;52.084;5.224;2023-03-14T04:54:23;98832.0;;;11.99;81.36
36834;BME280;48003;52.084;5.224;2023-03-14T04:55:59;98839.0;;;11.72;82.71
36834;BME280;48003;52.084;5.224;2023-03-14T04:57:36;98820.0;;;11.9;82.51
36834;BME280;48003;52.084;5.224;2023-03-14T05:00:49;98827.0;;;12.1;81.67
36834;BME280;48003;52.084;5.224;2023-03-14T05:02:26;98828.0;;;12.0;82.57
36834;BME280;48003;52.084;5.224;2023-03-14T05:04:02;98822.0;;;11.95;84.37
36834;BME280;48003;52.084;5.224;2023-03-14T05:07:14;98815.0;;;11.94;83.96
36834;BME280;48003;52.084;5.224;2023-03-14T05:08:50;98815.0;;;11.74;85.38
36834;BME280;48003;52.084;5.224;2023-03-14T05:10:26;98807.0;;;11.62;86.7
36834;BME280;48003;52.084;5.224;2023-03-14T05:13:39;98806.0;;;11.78;87.48
36834;BME280;48003;52.084;5.224;2023-03-14T05:15:15;98805.0;;;11.84;87.24
36834;BME280;48003;52.084;5.224;2023-03-14T05:16:51;98801.0;;;11.42;88.46
36834;BME280;48003;52.084;5.224;2023-03-14T05:18:27;98805.0;;;11.46;89.55
36834;BME280;48003;52.084;5.224;2023-03-14T05:21:40;98799.0;;;11.58;88.37
36834;BME280;48003;52.084;5.224;2023-03-14T05:23:16;98796.0;;;11.66;89.21
36834;BME280;48003;52.084;5.224;2023-03-14T05:24:53;98790.0;;;11.71;87.83
36834;BME280;48003;52.084;5.224;2023-03-14T05:28:06;98807.0;;;11.86;86.97
36834;BME280;48003;52.084;5.224;2023-03-14T05:29:42;98789.0;;;11.63;88.02
36834;BME280;48003;52.084;5.224;2023-03-14T05:31:18;98787.0;;;11.72;88.51
36834;BME280;48003;52.084;5.224;2023-03-14T05:34:30;98785.0;;;11.67;88.82
36834;BME280;48003;52.084;5.224;2023-03-14T05:36:07;98790.0;;;12.11;87.28
36834;BME280;48003;52.084;5.224;2023-03-14T05:37:44;98799.0;;;11.77;88.27
36834;BME280;48003;52.084;5.224;2023-03-14T05:39:20;98794.0;;;11.55;89.45
36834;BME280;48003;52.084;5.224;2023-03-14T05:42:33;98800.0;;;11.12;91.16
36834;BME280;48003;52.084;5.224;2023-03-14T05:44:09;98796.0;;;11.35;91.73
36834;BME280;48003;52.084;5.224;2023-03-14T05:45:45;98790.0;;;11.51;90.32
36834;BME280;48003;52.084;5.224;2023-03-14T05:48:57;98794.0;;;11.34;90.54
36834;BME280;48003;52.084;5.224;2023-03-14T05:50:35;98802.0;;;11.29;91.4
36834;BME280;48003;52.084;5.224;2023-03-14T05:52:12;98801.0;;;11.03;92.98
36834;BME280;48003;52.084;5.224;2023-03-14T05:55:24;98803.0;;;11.15;92.58
36834;BME280;48003;52.084;5.224;2023-03-14T05:57:01;98797.0;;;11.0;93.23
36834;BME280;48003;52.084;5.224;2023-03-14T05:58:37;98786.0;;;11.28;92.0
36834;BME280;48003;52.084;5.224;2023-03-14T06:00:14;98789.0;;;11.34;92.01
36834;BME280;48003;52.084;5.224;2023-03-14T06:03:26;98790.0;;;11.29;91.72
36834;BME280;48003;52.084;5.224;2023-03-14T06:05:04;98794.0;;;11.76;90.58
36834;BME280;48003;52.084;5.224;2023-03-14T06:06:41;98791.0;;;11.37;91.73
36834;BME280;48003;52.084;5.224;2023-03-14T06:09:53;98798.0;;;11.24;92.77
36834;BME280;48003;52.084;5.224;2023-03-14T06:11:29;98795.0;;;11.7;90.85
36834;BME280;48003;52.084;5.224;2023-03-14T06:13:05;98800.0;;;11.52;92.12
36834;BME280;48003;52.084;5.224;2023-03-14T06:16:17;98796.0;;;11.3;92.54
36834;BME280;48003;52.084;5.224;2023-03-14T06:17:54;98793.0;;;11.61;91.94
36834;BME280;48003;52.084;5.224;2023-03-14T06:19:31;98796.0;;;11.56;91.61
36834;BME280;48003;52.084;5.224;2023-03-14T06:21:07;98802.0;;;11.07;94.68
36834;BME280;48003;52.084;5.224;2023-03-14T06:24:20;98790.0;;;11.22;94.33
36834;BME280;48003;52.084;5.224;2023-03-14T06:25:56;98838.0;;;11.25;94.1
36834;BME280;48003;52.084;5.224;2023-03-14T06:30:45;98868.0;;;11.47;91.79
36834;BME280;48003;52.084;5.224;2023-03-14T06:32:22;98877.0;;;11.26;90.99
36834;BME280;48003;52.084;5.224;2023-03-14T06:33:58;98887.0;;;11.0;89.65
36834;BME280;48003;52.084;5.224;2023-03-14T06:37:11;98898.0;;;10.87;88.21
36834;BME280;48003;52.084;5.224;2023-03-14T06:38:47;98905.0;;;10.69;87.68
36834;BME280;48003;52.084;5.224;2023-03-14T06:40:23;98915.0;;;10.65;88.4
36834;BME280;48003;52.084;5.224;2023-03-14T06:43:36;98918.0;;;10.55;88.72
36834;BME280;48003;52.084;5.224;2023-03-14T06:45:12;98921.0;;;10.53;88.93
36834;BME280;48003;52.084;5.224;2023-03-14T06:46:49;98934.0;;;10.49;89.06
36834;BME280;48003;52.084;5.224;2023-03-14T06:48:25;98934.0;;;10.43;88.96
36834;BME280;48003;52.084;5.224;2023-03-14T06:51:39;98934.0;;;10.33;89.35
36834;BME280;48003;52.084;5.224;2023-03-14T06:53:16;98943.0;;;10.34;89.43
36834;BME280;48003;52.084;5.224;2023-03-14T06:54:52;98943.0;;;10.41;89.32
36834;BME280;48003;52.084;5.224;2023-03-14T06:58:05;98947.0;;;10.5;89.21
36834;BME280;48003;52.084;5.224;2023-03-14T06:59:41;98949.0;;;10.65;88.83
36834;BME280;48003;52.084;5.224;2023-03-14T07:01:21;98957.0;;;10.58;88.86
36834;BME280;48003;52.084;5.224;2023-03-14T07:02:58;98962.0;;;10.64;88.56
36834;BME280;48003;52.084;5.224;2023-03-14T07:06:10;98969.0;;;10.57;88.73
36834;BME280;48003;52.084;5.224;2023-03-14T07:07:46;98977.0;;;10.58;88.66
36834;BME280;48003;52.084;5.224;2023-03-14T07:09:23;98981.0;;;10.55;88.6
36834;BME280;48003;52.084;5.224;2023-03-14T07:12:35;98989.0;;;10.44;88.72
36834;BME280;48003;52.084;5.224;2023-03-14T07:14:11;99005.0;;;10.45;88.61
36834;BME280;48003;52.084;5.224;2023-03-14T07:15:47;99010.0;;;10.47;88.69
36834;BME280;48003;52.084;5.224;2023-03-14T07:19:00;99018.0;;;10.39;88.92
36834;BME280;48003;52.084;5.224;2023-03-14T07:20:36;99028.0;;;10.52;88.73
36834;BME280;48003;52.084;5.224;2023-03-14T07:22:13;99036.0;;;10.34;88.49
36834;BME280;48003;52.084;5.224;2023-03-14T07:25:25;99052.0;;;10.14;88.86
36834;BME280;48003;52.084;5.224;2023-03-14T07:27:02;99061.0;;;10.09;88.89
36834;BME280;48003;52.084;5.224;2023-03-14T07:28:38;99066.0;;;10.14;88.75
36834;BME280;48003;52.084;5.224;2023-03-14T07:30:14;99073.0;;;10.05;88.69
36834;BME280;48003;52.084;5.224;2023-03-14T07:33:26;99080.0;;;10.01;88.59
36834;BME280;48003;52.084;5.224;2023-03-14T07:35:03;99090.0;;;10.08;88.48
36834;BME280;48003;52.084;5.224;2023-03-14T07:36:40;99094.0;;;10.08;88.48
36834;BME280;48003;52.084;5.224;2023-03-14T07:39:52;99107.0;;;10.08;88.09
36834;BME280;48003;52.084;5.224;2023-03-14T07:41:28;99116.0;;;10.1;87.79
36834;BME280;48003;52.084;5.224;2023-03-14T07:43:05;99124.0;;;10.18;87.48
36834;BME280;48003;52.084;5.224;2023-03-14T07:46:17;99130.0;;;10.23;87.21
36834;BME280;48003;52.084;5.224;2023-03-14T07:47:53;99136.0;;;10.16;87.03
36834;BME280;48003;52.084;5.224;2023-03-14T07:49:28;99139.0;;;10.15;86.68
36834;BME280;48003;52.084;5.224;2023-03-14T07:51:05;99151.0;;;10.14;86.81
36834;BME280;48003;52.084;5.224;2023-03-14T07:54:17;99162.0;;;10.19;86.47
36834;BME280;48003;52.084;5.224;2023-03-14T07:55:53;99173.0;;;10.11;86.52
36834;BME280;48003;52.084;5.224;2023-03-14T07:57:29;99180.0;;;10.06;85.56
36834;BME280;48003;52.084;5.224;2023-03-14T08:00:42;99190.0;;;10.03;84.98
36834;BME280;48003;52.084;5.224;2023-03-14T08:02:19;99203.0;;;10.02;84.67
36834;BME280;48003;52.084;5.224;2023-03-14T08:03:55;99212.0;;;9.94;84.8
36834;BME280;48003;52.084;5.224;2023-03-14T08:07:10;99217.0;;;9.98;84.85
36834;BME280;48003;52.084;5.224;2023-03-14T08:08:46;99225.0;;;10.02;84.58
36834;BME280;48003;52.084;5.224;2023-03-14T08:10:22;99227.0;;;10.03;84.65
36834;BME280;48003;52.084;5.224;2023-03-14T08:13:37;99260.0;;;9.9;84.87
36834;BME280;48003;52.084;5.224;2023-03-14T08:15:13;99265.0;;;9.63;84.51
36834;BME280;48003;52.084;5.224;2023-03-14T08:16:49;99285.0;;;9.5;84.46
36834;BME280;48003;52.084;5.224;2023-03-14T08:18:26;99298.0;;;9.24;84.81
36834;BME280;48003;52.084;5.224;2023-03-14T08:21:39;99311.0;;;9.24;84.84
36834;BME280;48003;52.084;5.224;2023-03-14T08:23:16;99315.0;;;9.05;85.09
36834;BME280;48003;52.084;5.224;2023-03-14T08:24:51;99328.0;;;8.89;85.19
36834;BME280;48003;52.084;5.224;2023-03-14T08:28:04;99338.0;;;8.88;85.23
36834;BME280;48003;52.084;5.224;2023-03-14T08:29:41;99343.0;;;8.81;85.38
36834;BME280;48003;52.084;5.224;2023-03-14T08:31:17;99355.0;;;8.75;85.59
36834;BME280;48003;52.084;5.224;2023-03-14T08:34:33;99370.0;;;8.64;85.63
36834;BME280;48003;52.084;5.224;2023-03-14T08:36:10;99365.0;;;8.58;85.35
36834;BME280;48003;52.084;5.224;2023-03-14T08:37:46;99386.0;;;8.64;85.0
36834;BME280;48003;52.084;5.224;2023-03-14T08:39:22;99395.0;;;8.56;84.52
36834;BME280;48003;52.084;5.224;2023-03-14T08:42:37;99403.0;;;8.51;83.98
36834;BME280;48003;52.084;5.224;2023-03-14T08:44:14;99415.0;;;8.41;84.18
36834;BME280;48003;52.084;5.224;2023-03-14T08:45:50;99419.0;;;8.57;84.37
36834;BME280;48003;52.084;5.224;2023-03-14T08:49:03;99423.0;;;8.66;84.35
36834;BME280;48003;52.084;5.224;2023-03-14T08:50:39;99431.0;;;8.63;83.59
36834;BME280;48003;52.084;5.224;2023-03-14T08:52:17;99444.0;;;8.71;83.3
36834;BME280;48003;52.084;5.224;2023-03-14T08:53:52;99446.0;;;8.73;83.14
36834;BME280;48003;52.084;5.224;2023-03-14T08:57:05;99460.0;;;8.73;83.55
36834;BME280;48003;52.084;5.224;2023-03-14T08:58:41;99469.0;;;8.8;83.6
36834;BME280;48003;52.084;5.224;2023-03-14T09:03:31;99489.0;;;8.84;83.15
36834;BME280;48003;52.084;5.224;2023-03-14T09:05:08;99494.0;;;8.91;82.39
36834;BME280;48003;52.084;5.224;2023-03-14T09:06:44;99501.0;;;8.98;81.98
36834;BME280;48003;52.084;5.224;2023-03-14T09:09:57;99507.0;;;9.08;81.98
36834;BME280;48003;52.084;5.224;2023-03-14T09:11:33;99522.0;;;8.98;80.91
36834;BME280;48003;52.084;5.224;2023-03-14T09:13:09;99534.0;;;9.0;80.77
36834;BME280;48003;52.084;5.224;2023-03-14T09:14:45;99543.0;;;8.88;79.69
36834;BME280;48003;52.084;5.224;2023-03-14T09:17:57;99547.0;;;8.81;79.62
36834;BME280;48003;52.084;5.224;2023-03-14T09:19:34;99557.0;;;8.93;79.42
36834;BME280;48003;52.084;5.224;2023-03-14T09:21:10;99564.0;;;8.86;78.83
36834;BME280;48003;52.084;5.224;2023-03-14T09:24:22;99569.0;;;9.0;78.52
36834;BME280;48003;52.084;5.224;2023-03-14T09:25:59;99574.0;;;8.91;78.41
36834;BME280;48003;52.084;5.224;2023-03-14T09:27:35;99591.0;;;9.03;79.2
36834;BME280;48003;52.084;5.224;2023-03-14T09:30:47;99596.0;;;8.98;78.72
36834;BME280;48003;52.084;5.224;2023-03-14T09:32:23;99605.0;;;9.1;78.3
36834;BME280;48003;52.084;5.224;2023-03-14T09:33:59;99618.0;;;9.03;78.69
36834;BME280;48003;52.084;5.224;2023-03-14T09:37:12;99639.0;;;9.0;78.02
36834;BME280;48003;52.084;5.224;2023-03-14T09:38:48;99634.0;;;8.97;76.94
36834;BME280;48003;52.084;5.224;2023-03-14T09:40:27;99638.0;;;8.65;74.61
36834;BME280;48003;52.084;5.224;2023-03-14T09:42:12;99645.0;;;8.73;75.22
36834;BME280;48003;52.084;5.224;2023-03-14T09:45:40;99648.0;;;8.78;75.08
36834;BME280;48003;52.084;5.224;2023-03-14T09:47:18;99661.0;;;8.83;75.33
36834;BME280;48003;52.084;5.224;2023-03-14T09:48:55;99676.0;;;8.92;74.98
36834;BME280;48003;52.084;5.224;2023-03-14T09:50:36;99681.0;;;8.82;74.94
36834;BME280;48003;52.084;5.224;2023-03-14T09:53:55;99690.0;;;8.93;74.5
36834;BME280;48003;52.084;5.224;2023-03-14T09:55:32;99691.0;;;8.89;74.52
36834;BME280;48003;52.084;5.224;2023-03-14T09:57:12;99696.0;;;8.89;74.94
36834;BME280;48003;52.084;5.224;2023-03-14T09:58:52;99699.0;;;8.98;75.14
36834;BME280;48003;52.084;5.224;2023-03-14T10:02:15;99706.0;;;9.14;74.98
36834;BME280;48003;52.084;5.224;2023-03-14T10:03:56;99714.0;;;9.36;75.22
36834;BME280;48003;52.084;5.224;2023-03-14T10:05:32;99722.0;;;9.28;75.09
36834;BME280;48003;52.084;5.224;2023-03-14T10:07:11;99733.0;;;9.4;75.66
36834;BME280;48003;52.084;5.224;2023-03-14T10:10:26;99741.0;;;9.31;76.22
36834;BME280;48003;52.084;5.224;2023-03-14T10:12:03;99752.0;;;8.97;76.05
36834;BME280;48003;52.084;5.224;2023-03-14T10:13:48;99757.0;;;8.73;77.94
36834;BME280;48003;52.084;5.224;2023-03-14T10:15:28;99769.0;;;8.58;78.7
36834;BME280;48003;52.084;5.224;2023-03-14T10:18:46;99789.0;;;8.41;78.58
36834;BME280;48003;52.084;5.224;2023-03-14T10:22:11;99817.0;;;8.55;79.77
36834;BME280;48003;52.084;5.224;2023-03-14T10:23:50;99817.0;;;8.52;80.86
36834;BME280;48003;52.084;5.224;2023-03-14T10:27:18;99820.0;;;8.5;79.77
36834;BME280;48003;52.084;5.224;2023-03-14T10:29:02;99826.0;;;8.53;78.2
36834;BME280;48003;52.084;5.224;2023-03-14T10:30:43;99830.0;;;8.56;77.48
36834;BME280;48003;52.084;5.224;2023-03-14T10:32:20;99840.0;;;8.68;77.47
36834;BME280;48003;52.084;5.224;2023-03-14T10:35:41;99850.0;;;8.84;77.66
36834;BME280;48003;52.084;5.224;2023-03-14T10:37:20;99850.0;;;9.01;76.97
36834;BME280;48003;52.084;5.224;2023-03-14T10:38:58;99860.0;;;9.06;77.08
36834;BME280;48003;52.084;5.224;2023-03-14T10:40:53;99869.0;;;9.08;76.5
36834;BME280;48003;52.084;5.224;2023-03-14T10:44:11;99871.0;;;9.22;76.23
36834;BME280;48003;52.084;5.224;2023-03-14T10:45:52;99881.0;;;9.36;76.17
36834;BME280;48003;52.084;5.224;2023-03-14T10:47:31;99889.0;;;9.39;76.2
36834;BME280;48003;52.084;5.224;2023-03-14T10:49:25;99885.0;;;9.49;74.61
36834;BME280;48003;52.084;5.224;2023-03-14T10:51:05;99903.0;;;9.42;72.62
36834;BME280;48003;52.084;5.224;2023-03-14T10:54:24;99913.0;;;9.49;72.91
36834;BME280;48003;52.084;5.224;2023-03-14T10:56:06;99930.0;;;9.35;70.92
36834;BME280;48003;52.084;5.224;2023-03-14T10:57:43;99942.0;;;9.41;70.41
36834;BME280;48003;52.084;5.224;2023-03-14T11:01:02;99953.0;;;9.31;67.74
36834;BME280;48003;52.084;5.224;2023-03-14T11:02:56;99963.0;;;9.13;68.74
36834;BME280;48003;52.084;5.224;2023-03-14T11:04:53;99969.0;;;9.27;69.3
36834;BME280;48003;52.084;5.224;2023-03-14T11:06:40;99973.0;;;9.25;68.08
36834;BME280;48003;52.084;5.224;2023-03-14T11:08:25;99980.0;;;9.31;67.61
36834;BME280;48003;52.084;5.224;2023-03-14T11:10:11;99988.0;;;9.36;67.67
36834;BME280;48003;52.084;5.224;2023-03-14T11:11:56;99999.0;;;9.39;67.11
36834;BME280;48003;52.084;5.224;2023-03-14T11:15:30;100005.0;;;9.48;66.53
36834;BME280;48003;52.084;5.224;2023-03-14T11:17:15;100014.0;;;9.56;66.31
36834;BME280;48003;52.084;5.224;2023-03-14T11:19:17;100022.0;;;9.67;66.67
36834;BME280;48003;52.084;5.224;2023-03-14T11:21:08;100025.0;;;9.57;64.66
36834;BME280;48003;52.084;5.224;2023-03-14T11:22:54;100035.0;;;9.73;65.09